Noord Nederlandse Zweefvliegclub

NL-0036 · Groningen, Niederlande

METAR-Geschichte NL-0036 · Noord Nederlandse Zweefvliegclub

Unten siehst du die METARs der letzten paar Tage. Wähle ein Jahr, um ältere METARs ab dem Jahr 2007 zu durchsuchen.

27. November 2022

Uhrzeit Code Wetter Temp. Sichtweite Wolkendecke Wind METAR/SPECI
00:25
V
7 °C 10 km+ - 170° 170° 8 kt METAR EHGG 262325Z AUTO 17008KT 130V200 9999 NSC 07/05 Q1024

26. November 2022

Uhrzeit Code Wetter Temp. Sichtweite Wolkendecke Wind METAR/SPECI
23:55
V
7 °C 10 km+ - 170° 170° 8 kt METAR EHGG 262255Z AUTO 17008KT 140V220 9999 NSC 07/06 Q1024
23:25
V
7 °C 10 km+ - 160° 160° 8 kt METAR EHGG 262225Z AUTO 16008KT 130V190 9999 NSC 07/06 Q1025
22:55
V
7 °C 10 km+ - 180° 180° 8 kt METAR EHGG 262155Z AUTO 18008KT 150V220 9999 NSC 07/06 Q1025 NOSIG
22:25
V
7 °C 10 km+ - 190° 190° 9 kt METAR EHGG 262125Z AUTO 19009KT 160V220 9999 NSC 07/06 Q1026 NOSIG
21:55
V
7 °C 10 km+ - 190° 190° 9 kt METAR EHGG 262055Z AUTO 19009KT 160V220 9999 NSC 07/06 Q1026 NOSIG
21:25
V
7 °C 10 km+ - 180° 180° 8 kt METAR EHGG 262025Z AUTO 18008KT 150V210 9999 NSC 07/06 Q1026 NOSIG
20:55
V
7 °C 10 km+ - 170° 170° 7 kt METAR EHGG 261955Z AUTO 17007KT 140V210 9999 NSC 07/06 Q1025 NOSIG
20:25
V
7 °C 9 km - 180° 180° 8 kt METAR EHGG 261925Z AUTO 18008KT 9000 NSC 07/06 Q1026 NOSIG
19:55
M
7 °C 7 km - 170° 170° 6 kt METAR EHGG 261855Z AUTO 17006KT 120V210 7000 NSC 07/06 Q1026 BECMG 8000
19:25
M
7 °C 7 km - 180° 180° 6 kt METAR EHGG 261825Z AUTO 18006KT 150V210 7000 NSC 07/06 Q1026 BECMG 8000
18:55
M
7 °C 7 km - 180° 180° 7 kt METAR EHGG 261755Z AUTO 18007KT 150V210 7000 NSC 07/06 Q1026 BECMG 8000
18:25
M
7 °C 7 km - 180° 180° 6 kt METAR EHGG 261725Z AUTO 18006KT 140V200 7000 NSC 07/06 Q1026 NOSIG
17:55
V
7 °C 8 km - 180° 180° 6 kt METAR EHGG 261655Z AUTO 18006KT 8000 NSC 07/07 Q1026 NOSIG
17:25
M
7 °C 7 km - 170° 170° 6 kt METAR EHGG 261625Z AUTO 17006KT 7000 NSC 07/07 Q1026 NOSIG
16:55
V
8 °C 8 km - 170° 170° 6 kt METAR EHGG 261555Z AUTO 17006KT 140V200 8000 NSC 08/07 Q1026 NOSIG
16:25
V
8 °C 8 km - 180° 180° 6 kt METAR EHGG 261525Z AUTO 18006KT 8000 NSC 08/07 Q1026 NOSIG
15:55
V
8 °C 8 km - 180° 180° 5 kt METAR EHGG 261455Z AUTO 18005KT 140V210 8000 FEW009 SCT010 08/07 Q1026 TEMPO 7000
15:25
V
8 °C 9 km - 170° 170° 6 kt METAR EHGG 261425Z AUTO 17006KT 140V210 9000 NSC 08/07 Q1026 NOSIG
14:55
V
8 °C 9 km - 190° 190° 7 kt METAR EHGG 261355Z AUTO 19007KT 160V220 9000 NSC 08/07 Q1026 NOSIG
14:25
V
8 °C 8 km - 190° 190° 7 kt METAR EHGG 261325Z AUTO 19007KT 150V220 8000 NSC 08/07 Q1026 NOSIG
13:55
V
8 °C 9 km - 190° 190° 8 kt METAR EHGG 261255Z AUTO 19008KT 9000 NSC 08/07 Q1027 NOSIG
13:25
V
8 °C 9 km - 190° 190° 8 kt METAR EHGG 261225Z AUTO 19008KT 9000 NSC 08/07 Q1027 NOSIG
12:55
V
8 °C 10 km+ - 200° 200° 7 kt METAR EHGG 261155Z AUTO 20007KT 9999 NSC 08/07 Q1027 NOSIG
12:25
V
8 °C 9 km - 200° 200° 8 kt METAR EHGG 261125Z AUTO 20008KT 170V230 9000 NSC 08/07 Q1027 NOSIG
11:55
V
7 °C 9 km - 200° 200° 8 kt METAR EHGG 261055Z AUTO 20008KT 9000 FEW005 07/07 Q1027 NOSIG
11:25
V
7 °C 9 km - 210° 210° 9 kt METAR EHGG 261025Z AUTO 21009KT 9000 FEW006 07/06 Q1027 NOSIG
10:55
V
7 °C 10 km+ - 210° 210° 8 kt METAR EHGG 260955Z AUTO 21008KT 9999 NSC 07/06 Q1027 NOSIG
10:25
V
6 °C 9 km - 210° 210° 7 kt METAR EHGG 260925Z AUTO 21007KT 9000 NSC 06/06 Q1027 NOSIG
09:55
V
6 °C 8 km - 200° 200° 6 kt METAR EHGG 260855Z AUTO 20006KT 8000 NSC 06/05 Q1026 NOSIG
09:25
M
5 °C 7 km - 200° 200° 6 kt METAR EHGG 260825Z AUTO 20006KT 7000 NSC 05/05 Q1026 BECMG CAVOK
08:55
M
5 °C 6 km 2.200 ft 210° 210° 7 kt METAR EHGG 260755Z AUTO 21007KT 6000 BKN022 BKN026 BKN031 05/04 Q1026 TEMPO 3500 BR
08:25
M
4 °C 5 km - 200° 200° 6 kt METAR EHGG 260725Z AUTO 20006KT 5000 NCD 04/04 Q1026 TEMPO 3500 BR
07:55
M
3 °C 5 km - 190° 190° 6 kt METAR EHGG 260655Z AUTO 19006KT 5000 NCD 03/03 Q1026 TEMPO 3500 BR
07:25
M
4 °C 5 km - 200° 200° 6 kt METAR EHGG 260625Z AUTO 20006KT 5000 NSC 04/03 Q1025 TEMPO 3500 BR
06:55
M
3 °C 6 km - 200° 200° 6 kt METAR EHGG 260555Z AUTO 20006KT 6000 NSC 03/03 Q1025 TEMPO 3500 BR
06:25
I
3 °C 4,8 km - 200° 200° 5 kt METAR EHGG 260525Z AUTO 20005KT 4800 BR NCD 03/03 Q1025 TEMPO 3500
05:55
I
2 °C 3,6 km - 200° 200° 6 kt METAR EHGG 260455Z AUTO 20006KT 3600 BR NCD 02/02 Q1025
05:25
I
2 °C 4,1 km - 200° 200° 5 kt METAR EHGG 260425Z AUTO 20005KT 4100 BR NCD 02/02 Q1025
04:55
I
2 °C 2,3 km - 210° 210° 6 kt METAR EHGG 260355Z AUTO 21006KT 2300 BR NCD 02/02 Q1025
04:25
I
2 °C 2 km - 200° 200° 4 kt METAR EHGG 260325Z AUTO 20004KT 2000 BR NCD 02/02 Q1024
03:55
I
2 °C 4,2 km - 200° 200° 4 kt METAR EHGG 260255Z AUTO 20004KT 4200 BR NCD 02/02 Q1024
03:25
M
2 °C 5 km - 200° 200° 5 kt METAR EHGG 260225Z AUTO 20005KT 5000 NCD 02/02 Q1024
02:55
M
3 °C 6 km - 200° 200° 5 kt METAR EHGG 260155Z AUTO 20005KT 6000 NCD 03/02 Q1024
02:25
M
3 °C 7 km - 210° 210° 6 kt METAR EHGG 260125Z AUTO 21006KT 7000 NCD 03/03 Q1024
01:55
I
3 °C 4,2 km - 210° 210° 6 kt METAR EHGG 260055Z AUTO 21006KT 4200 BR NCD 03/03 Q1023
01:25
I
3 °C 4,2 km - 200° 200° 5 kt METAR EHGG 260025Z AUTO 20005KT 4200 BR NCD 03/03 Q1023
00:55
M
3 °C 5 km - 200° 200° 5 kt METAR EHGG 252355Z AUTO 20005KT 5000 NCD 03/03 Q1023
00:25
I
2 °C 2,9 km - 200° 200° 4 kt METAR EHGG 252325Z AUTO 20004KT 2900 BR FEW027 02/02 Q1023

25. November 2022

Uhrzeit Code Wetter Temp. Sichtweite Wolkendecke Wind METAR/SPECI
23:55
I
3 °C 3,7 km - 220° 220° 6 kt METAR EHGG 252255Z AUTO 22006KT 3700 BR NCD 03/03 Q1022
23:25
I
3 °C 4,5 km - 220° 220° 6 kt METAR EHGG 252225Z AUTO 22006KT 4500 NCD 03/03 Q1022
22:55
M
3 °C 6 km - 230° 230° 7 kt METAR EHGG 252155Z AUTO 23007KT 6000 SCT025 03/03 Q1022
22:25
M
3 °C 6 km - 230° 230° 7 kt METAR EHGG 252125Z AUTO 23007KT 6000 NCD 03/03 Q1021 NOSIG
21:55
M
3 °C 5 km - 230° 230° 7 kt METAR EHGG 252055Z AUTO 23007KT 5000 FEW025 03/03 Q1021 NOSIG
21:25
M
4 °C 7 km - 220° 220° 7 kt METAR EHGG 252025Z AUTO 22007KT 7000 NCD 04/04 Q1020 NOSIG
20:55
V
4 °C 8 km - 230° 230° 7 kt METAR EHGG 251955Z AUTO 23007KT 8000 FEW023 04/04 Q1020 NOSIG
20:25
V
4 °C 9 km - 240° 240° 7 kt METAR EHGG 251925Z AUTO 24007KT 9000 NCD 04/04 Q1020 NOSIG
19:55
I
4 °C 3,8 km - 230° 230° 6 kt METAR EHGG 251855Z AUTO 23006KT 3800 BR NCD 04/04 Q1019 BECMG 7000 NSW
19:25
M
4 °C 6 km - 220° 220° 6 kt METAR EHGG 251825Z AUTO 22006KT 6000 FEW029 04/04 Q1019 NOSIG
18:55
V
5 °C 10 km+ - 230° 230° 6 kt METAR EHGG 251755Z AUTO 23006KT 9999 FEW020 SCT025 05/05 Q1018 NOSIG
18:25
V
5 °C 10 km+ - 230° 230° 6 kt METAR EHGG 251725Z AUTO 23006KT 9999 FEW025 05/05 Q1018 NOSIG
17:55
V
5 °C 10 km+ - 220° 220° 6 kt METAR EHGG 251655Z AUTO 22006KT 9999 FEW019 SCT027 05/04 Q1017 NOSIG
17:25
V
5 °C 10 km+ - 220° 220° 6 kt METAR EHGG 251625Z AUTO 22006KT 9999 NCD 05/04 Q1017 NOSIG
16:55
V
6 °C 10 km+ - 220° 220° 6 kt METAR EHGG 251555Z AUTO 22006KT 9999 FEW020 06/06 Q1016 NOSIG
16:25
M
8 °C 10 km+ 2.000 ft 240° 240° 6 kt METAR EHGG 251525Z AUTO 24006KT 9999 SCT017 BKN020 BKN023 08/07 Q1016 NOSIG
15:55
V
10 °C 10 km+ 4.100 ft 240° 240° 7 kt METAR EHGG 251455Z AUTO 24007KT 9999 FEW033 SCT037 BKN041 10/08 Q1015 NOSIG
15:25
V
11 °C 10 km+ - 230° 230° 9 kt METAR EHGG 251425Z AUTO 23009KT 200V260 9999 FEW021 SCT036 11/08 Q1015 NOSIG
14:55
M
11 °C 10 km+ 2.200 ft 230° 230° 9 kt METAR EHGG 251355Z AUTO 23009KT 9999 FEW018 BKN022 BKN027 11/09 Q1014 NOSIG
14:25
V
11 °C 10 km+ - 220° 220° 9 kt METAR EHGG 251325Z AUTO 22009KT 9999 NCD 11/08 Q1014 NOSIG
13:55
V
11 °C 10 km+ - 230° 230° 10 kt METAR EHGG 251255Z AUTO 23010KT 9999 FEW032 SCT037 11/08 Q1014 NOSIG
13:25
M
11 °C 10 km+ 2.500 ft 230° 230° 12 kt METAR EHGG 251225Z AUTO 23012KT 9999 SCT014 BKN025 BKN029 11/08 Q1013 NOSIG
12:55
V
10 °C 10 km+ 4.000 ft 230° 230° 10 kt METAR EHGG 251155Z AUTO 23010KT 9999 FEW014 SCT023 BKN040 10/08 Q1013 NOSIG
12:25
M
11 °C 10 km+ 1.500 ft 220° 220° 10 kt METAR EHGG 251125Z AUTO 22010KT 190V250 9999 SCT013 BKN015 11/08 Q1013 NOSIG
11:55
V
11 °C 10 km+ - 220° 220° 10 kt METAR EHGG 251055Z AUTO 22010KT 190V250 9999 FEW014 SCT048 11/08 Q1012 NOSIG
11:25
V
10 °C 10 km+ - 210° 210° 10 kt METAR EHGG 251025Z AUTO 21010KT 170V230 9999 NCD 10/08 Q1012 NOSIG
10:55
V
9 °C 10 km+ - 200° 200° 11 kt METAR EHGG 250955Z AUTO 20011KT 170V230 9999 NCD 09/08 Q1012 NOSIG
10:25
V
9 °C 10 km+ - 210° 210° 9 kt METAR EHGG 250925Z AUTO 21009KT 9999 NCD 09/07 Q1011 NOSIG
09:55
V
8 °C 10 km+ - 200° 200° 9 kt METAR EHGG 250855Z AUTO 20009KT 170V240 9999 NCD 08/07 Q1011 NOSIG
09:25
V
8 °C 10 km+ - 200° 200° 9 kt METAR EHGG 250825Z AUTO 20009KT 9999 NCD 08/07 Q1011 TEMPO 7000 -RADZ BKN008
08:55
M
8 °C 10 km+ 1.000 ft 200° 200° 8 kt METAR EHGG 250755Z AUTO 20008KT 170V240 9999 FEW008 BKN010 08/07 Q1010 TEMPO 7000 -RADZ BKN008
08:25
M
8 °C 10 km+ 1.400 ft 200° 200° 8 kt METAR EHGG 250725Z AUTO 20008KT 9999 FEW012 BKN014 OVC016 08/07 Q1010 TEMPO 7000 -RADZ BKN008
07:55
M
8 °C 10 km+ 2.000 ft 200° 200° 9 kt METAR EHGG 250655Z AUTO 20009KT 160V230 9999 BKN020 BKN025 BKN031 08/07 Q1010 TEMPO 7000 -RADZ BKN008
07:25
V
8 °C 10 km+ 4.500 ft 190° 190° 9 kt METAR EHGG 250625Z AUTO 19009KT 160V220 9999 -RA SCT029 BKN045 08/07 Q1009 REDZRA TEMPO 7000 -RADZ BKN008
06:55
V
8 °C 10 km+ 4.500 ft 180° 180° 9 kt METAR EHGG 250555Z AUTO 18009KT 140V200 9999 DZ SCT013 BKN045 08/07 Q1009 TEMPO 7000 -RADZ BKN008
06:25
M
8 °C 10 km+ 1.000 ft 180° 180° 8 kt METAR EHGG 250525Z AUTO 18008KT 140V210 9999 FEW007 SCT009 BKN010 08/07 Q1009 REDZ TEMPO 7000 -RADZ BKN008
05:55
V
8 °C 10 km+ 4.800 ft 180° 180° 8 kt METAR EHGG 250455Z AUTO 18008KT 9999 DZ FEW015CB SCT043 BKN048 08/07 Q1009
05:25
V
8 °C 9 km 4.700 ft 180° 180° 9 kt METAR EHGG 250425Z AUTO 18009KT 140V210 9000 -RADZ FEW015CB BKN047 08/07 Q1008 REDZRA
04:55
V
8 °C 10 km+ 4.700 ft 170° 170° 11 kt METAR EHGG 250355Z AUTO 17011KT 140V200 9999 -SHRA FEW012 SCT015CB BKN047 08/07 Q1008
04:25
V
8 °C 10 km+ - 170° 170° 11 kt METAR EHGG 250325Z AUTO 17011KT 140V210 9999 -RA FEW015CB SCT046 08/07 Q1008 REDZRA
03:55
V
8 °C 10 km+ - 170° 170° 9 kt METAR EHGG 250255Z AUTO 17009KT 130V210 9999 -RA FEW038 08/06 Q1008
03:25
V
8 °C 10 km+ 4.500 ft 180° 180° 10 kt METAR EHGG 250225Z AUTO 18010KT 150V210 9999 -SHRA FEW015CB SCT038 BKN045 08/06 Q1008 REDZ
02:55
V
8 °C 10 km+ 4.900 ft 170° 170° 10 kt METAR EHGG 250155Z AUTO 17010KT 130V200 9999 OVC049 08/06 Q1008
02:25
V
8 °C 10 km+ 4.700 ft 170° 170° 10 kt METAR EHGG 250125Z AUTO 17010KT 130V200 9999 BKN047 08/06 Q1008 REDZ
01:55
V
8 °C 10 km+ - 170° 170° 10 kt METAR EHGG 250055Z AUTO 17010KT 140V200 9999 FEW037 08/05 Q1008
01:25
V
8 °C 10 km+ 4.500 ft 170° 170° 10 kt METAR EHGG 250025Z AUTO 17010KT 130V200 9999 BKN045/// 08/06 Q1008
00:55
V
7 °C 10 km+ 4.000 ft 170° 170° 9 kt METAR EHGG 242355Z AUTO 17009KT 130V200 9999 BKN040 OVC045 07/06 Q1009 REDZ
00:25
V
7 °C 10 km+ 3.700 ft 170° 170° 11 kt METAR EHGG 242325Z AUTO 17011KT 140V200 9999 -RA FEW017 BKN037 OVC048 07/05 Q1009 REDZRA

24. November 2022

Uhrzeit Code Wetter Temp. Sichtweite Wolkendecke Wind METAR/SPECI
23:55
V
7 °C 10 km+ - 170° 170° 9 kt METAR EHGG 242255Z AUTO 17009KT 120V210 9999 NSC 07/05 Q1009
23:25
V
7 °C 10 km+ - 170° 170° 9 kt METAR EHGG 242225Z AUTO 17009KT 130V190 9999 NSC 07/05 Q1009
22:55
V
7 °C 10 km+ - 170° 170° 9 kt METAR EHGG 242155Z AUTO 17009KT 130V200 9999 NSC 07/05 Q1009 NOSIG
22:25
V
7 °C 10 km+ - 170° 170° 8 kt METAR EHGG 242125Z AUTO 17008KT 130V210 9999 NSC 07/05 Q1009 NOSIG
21:55
V
7 °C 10 km+ - 170° 170° 8 kt METAR EHGG 242055Z AUTO 17008KT 140V200 9999 NSC 07/05 Q1009 NOSIG
21:25
V
7 °C 10 km+ - 170° 170° 8 kt METAR EHGG 242025Z AUTO 17008KT 140V200 9999 NSC 07/06 Q1009 NOSIG
20:55
V
7 °C 10 km+ - 180° 180° 7 kt METAR EHGG 241955Z AUTO 18007KT 150V210 9999 NSC 07/05 Q1010 NOSIG
20:25
V
7 °C 10 km+ - 170° 170° 8 kt METAR EHGG 241925Z AUTO 17008KT 140V200 9999 NSC 07/05 Q1010 NOSIG
19:55
V
7 °C 10 km+ - 170° 170° 7 kt METAR EHGG 241855Z AUTO 17007KT 130V200 9999 NSC 07/06 Q1010 NOSIG
19:25
V
7 °C 10 km+ - 170° 170° 7 kt METAR EHGG 241825Z AUTO 17007KT 140V200 9999 NSC 07/06 Q1010 NOSIG
18:55
V
7 °C 10 km+ - 170° 170° 7 kt METAR EHGG 241755Z AUTO 17007KT 140V200 9999 NSC 07/06 Q1009 NOSIG
18:25
V
7 °C 10 km+ - 170° 170° 7 kt METAR EHGG 241725Z AUTO 17007KT 9999 NSC 07/06 Q1009 NOSIG
17:55
V
7 °C 10 km+ - 160° 160° 7 kt METAR EHGG 241655Z AUTO 16007KT 130V190 9999 NCD 07/06 Q1009 NOSIG
17:25
V
8 °C 10 km+ - 160° 160° 6 kt METAR EHGG 241625Z AUTO 16006KT 9999 NCD 08/06 Q1009 NOSIG
16:55
V
8 °C 10 km+ - 160° 160° 5 kt METAR EHGG 241555Z AUTO 16005KT 9999 NCD 08/06 Q1009 NOSIG
16:25
V
9 °C 10 km+ - 190° 190° 6 kt METAR EHGG 241525Z AUTO 19006KT 9999 NSC 09/07 Q1009 NOSIG
15:55
V
9 °C 10 km+ - 190° 190° 6 kt METAR EHGG 241455Z AUTO 19006KT 160V220 9999 NCD 09/07 Q1009 NOSIG
15:25
V
10 °C 10 km+ - 200° 200° 8 kt METAR EHGG 241425Z AUTO 20008KT 160V230 9999 NSC 10/08 Q1009 NOSIG
14:55
V
11 °C 10 km+ - 200° 200° 9 kt METAR EHGG 241355Z AUTO 20009KT 170V240 9999 FEW016 11/07 Q1008 NOSIG
14:25
V
11 °C 10 km+ - 210° 210° 9 kt METAR EHGG 241325Z AUTO 21009KT 9999 NCD 11/08 Q1008 NOSIG
13:55
V
11 °C 10 km+ - 200° 200° 9 kt METAR EHGG 241255Z AUTO 20009KT 170V230 9999 FEW016 11/08 Q1008 NOSIG
13:25
V
11 °C 10 km+ - 210° 210° 8 kt METAR EHGG 241225Z AUTO 21008KT 9999 NCD 11/08 Q1008 NOSIG
12:55
V
10 °C 10 km+ - 210° 210° 8 kt METAR EHGG 241155Z AUTO 21008KT 180V250 9999 NCD 10/08 Q1008 NOSIG
12:25
V
9 °C 10 km+ - 220° 220° 10 kt METAR EHGG 241125Z AUTO 22010KT 9999 NCD 09/07 Q1008 NOSIG
11:55
V
9 °C 10 km+ - 220° 220° 12 kt METAR EHGG 241055Z AUTO 22012KT 9999 NSC 09/07 Q1007 NOSIG
11:25
V
9 °C 10 km+ - 220° 220° 9 kt METAR EHGG 241025Z AUTO 22009KT 190V250 9999 FEW045 09/07 Q1007 NOSIG
10:55
V
9 °C 10 km+ - 210° 210° 9 kt METAR EHGG 240955Z AUTO 21009KT 180V240 9999 NCD 09/07 Q1007 NOSIG

Wir und Dritte verfolgen dein Internetverhalten auf unserer Website mit Cookies. Wenn du fortfährst, gehen wir davon aus, dass du mit unserer Cookie-Richtlinie einverstanden bist.